sensor_id;sensor_type;location;lat;lon;timestamp;P1;durP1;ratioP1;P2;durP2;ratioP2
51190;SDS011;37253;48.736;9.294;2023-12-29T00:01:12;1.70;;;0.80;;
51190;SDS011;37253;48.736;9.294;2023-12-29T00:03:12;1.25;;;0.90;;
51190;SDS011;37253;48.736;9.294;2023-12-29T00:05:12;1.38;;;0.75;;
51190;SDS011;37253;48.736;9.294;2023-12-29T00:07:13;0.77;;;0.68;;
51190;SDS011;37253;48.736;9.294;2023-12-29T00:09:14;2.13;;;0.90;;
51190;SDS011;37253;48.736;9.294;2023-12-29T00:11:21;1.95;;;0.93;;
51190;SDS011;37253;48.736;9.294;2023-12-29T00:13:21;1.17;;;0.85;;
51190;SDS011;37253;48.736;9.294;2023-12-29T00:15:23;1.13;;;0.80;;
51190;SDS011;37253;48.736;9.294;2023-12-29T00:17:24;0.85;;;0.70;;
51190;SDS011;37253;48.736;9.294;2023-12-29T00:19:24;0.90;;;0.70;;
51190;SDS011;37253;48.736;9.294;2023-12-29T00:21:24;1.10;;;0.68;;
51190;SDS011;37253;48.736;9.294;2023-12-29T00:23:25;2.97;;;0.98;;
51190;SDS011;37253;48.736;9.294;2023-12-29T00:25:25;8.55;;;1.23;;
51190;SDS011;37253;48.736;9.294;2023-12-29T00:27:25;2.20;;;0.80;;
51190;SDS011;37253;48.736;9.294;2023-12-29T00:29:26;0.98;;;0.80;;
51190;SDS011;37253;48.736;9.294;2023-12-29T00:31:28;3.10;;;0.93;;
51190;SDS011;37253;48.736;9.294;2023-12-29T00:33:28;3.55;;;1.05;;
51190;SDS011;37253;48.736;9.294;2023-12-29T00:35:28;3.10;;;0.70;;
51190;SDS011;37253;48.736;9.294;2023-12-29T00:37:29;2.58;;;0.80;;
51190;SDS011;37253;48.736;9.294;2023-12-29T00:39:30;2.40;;;0.85;;
51190;SDS011;37253;48.736;9.294;2023-12-29T00:41:31;2.08;;;0.90;;
51190;SDS011;37253;48.736;9.294;2023-12-29T00:43:32;2.38;;;0.85;;
51190;SDS011;37253;48.736;9.294;2023-12-29T00:45:32;1.05;;;0.90;;
51190;SDS011;37253;48.736;9.294;2023-12-29T00:47:35;1.75;;;0.90;;
51190;SDS011;37253;48.736;9.294;2023-12-29T00:49:38;1.75;;;0.93;;
51190;SDS011;37253;48.736;9.294;2023-12-29T00:51:39;1.33;;;0.70;;
51190;SDS011;37253;48.736;9.294;2023-12-29T00:53:41;2.92;;;0.90;;
51190;SDS011;37253;48.736;9.294;2023-12-29T00:55:41;1.15;;;0.90;;
51190;SDS011;37253;48.736;9.294;2023-12-29T00:57:41;1.33;;;0.90;;
51190;SDS011;37253;48.736;9.294;2023-12-29T00:59:42;2.63;;;1.00;;
51190;SDS011;37253;48.736;9.294;2023-12-29T01:01:44;1.55;;;0.85;;
51190;SDS011;37253;48.736;9.294;2023-12-29T01:03:44;1.45;;;0.80;;
51190;SDS011;37253;48.736;9.294;2023-12-29T01:05:44;1.60;;;0.98;;
51190;SDS011;37253;48.736;9.294;2023-12-29T01:07:45;2.10;;;0.80;;
51190;SDS011;37253;48.736;9.294;2023-12-29T01:09:45;0.95;;;0.80;;
51190;SDS011;37253;48.736;9.294;2023-12-29T01:11:45;1.80;;;0.90;;
51190;SDS011;37253;48.736;9.294;2023-12-29T01:13:46;3.80;;;0.80;;
51190;SDS011;37253;48.736;9.294;2023-12-29T01:15:46;3.58;;;0.82;;
51190;SDS011;37253;48.736;9.294;2023-12-29T01:17:46;2.40;;;0.80;;
51190;SDS011;37253;48.736;9.294;2023-12-29T01:19:47;6.15;;;1.02;;
51190;SDS011;37253;48.736;9.294;2023-12-29T01:21:47;2.25;;;0.80;;
51190;SDS011;37253;48.736;9.294;2023-12-29T01:23:47;3.70;;;1.00;;
51190;SDS011;37253;48.736;9.294;2023-12-29T01:25:47;1.17;;;0.70;;
51190;SDS011;37253;48.736;9.294;2023-12-29T01:27:48;2.22;;;1.00;;
51190;SDS011;37253;48.736;9.294;2023-12-29T01:29:48;2.63;;;0.80;;
51190;SDS011;37253;48.736;9.294;2023-12-29T01:31:48;1.10;;;0.80;;
51190;SDS011;37253;48.736;9.294;2023-12-29T01:33:49;5.35;;;0.88;;
51190;SDS011;37253;48.736;9.294;2023-12-29T01:35:49;2.75;;;0.70;;
51190;SDS011;37253;48.736;9.294;2023-12-29T01:37:49;2.47;;;0.95;;
51190;SDS011;37253;48.736;9.294;2023-12-29T01:39:50;2.25;;;0.90;;
51190;SDS011;37253;48.736;9.294;2023-12-29T01:41:50;1.48;;;0.90;;
51190;SDS011;37253;48.736;9.294;2023-12-29T01:44:16;8.65;;;1.10;;
51190;SDS011;37253;48.736;9.294;2023-12-29T01:46:18;1.65;;;0.85;;
51190;SDS011;37253;48.736;9.294;2023-12-29T01:48:19;2.47;;;0.98;;
51190;SDS011;37253;48.736;9.294;2023-12-29T01:50:20;1.52;;;0.85;;
51190;SDS011;37253;48.736;9.294;2023-12-29T01:52:21;1.92;;;1.00;;
51190;SDS011;37253;48.736;9.294;2023-12-29T01:54:22;2.35;;;0.90;;
51190;SDS011;37253;48.736;9.294;2023-12-29T01:56:23;2.03;;;0.80;;
51190;SDS011;37253;48.736;9.294;2023-12-29T01:58:23;2.78;;;1.00;;
51190;SDS011;37253;48.736;9.294;2023-12-29T02:00:24;2.65;;;1.10;;
51190;SDS011;37253;48.736;9.294;2023-12-29T02:02:25;1.70;;;0.90;;
51190;SDS011;37253;48.736;9.294;2023-12-29T02:04:25;2.20;;;0.98;;
51190;SDS011;37253;48.736;9.294;2023-12-29T02:06:26;1.23;;;0.82;;
51190;SDS011;37253;48.736;9.294;2023-12-29T02:08:27;2.28;;;1.00;;
51190;SDS011;37253;48.736;9.294;2023-12-29T02:10:27;1.42;;;0.90;;
51190;SDS011;37253;48.736;9.294;2023-12-29T02:12:27;3.28;;;1.20;;
51190;SDS011;37253;48.736;9.294;2023-12-29T02:14:28;1.48;;;0.93;;
51190;SDS011;37253;48.736;9.294;2023-12-29T02:16:30;1.83;;;1.00;;
51190;SDS011;37253;48.736;9.294;2023-12-29T02:18:35;2.08;;;1.20;;
51190;SDS011;37253;48.736;9.294;2023-12-29T02:20:36;1.65;;;0.90;;
51190;SDS011;37253;48.736;9.294;2023-12-29T02:22:36;1.52;;;1.00;;
51190;SDS011;37253;48.736;9.294;2023-12-29T02:24:37;2.55;;;0.88;;
51190;SDS011;37253;48.736;9.294;2023-12-29T02:26:38;2.95;;;0.75;;
51190;SDS011;37253;48.736;9.294;2023-12-29T02:28:41;3.97;;;0.90;;
51190;SDS011;37253;48.736;9.294;2023-12-29T02:30:45;1.13;;;0.80;;
51190;SDS011;37253;48.736;9.294;2023-12-29T02:32:49;3.90;;;1.00;;
51190;SDS011;37253;48.736;9.294;2023-12-29T02:34:50;1.77;;;0.80;;
51190;SDS011;37253;48.736;9.294;2023-12-29T02:36:51;1.20;;;0.90;;
51190;SDS011;37253;48.736;9.294;2023-12-29T02:38:52;2.45;;;1.02;;
51190;SDS011;37253;48.736;9.294;2023-12-29T02:40:53;3.55;;;1.05;;
51190;SDS011;37253;48.736;9.294;2023-12-29T02:42:55;1.30;;;0.70;;
51190;SDS011;37253;48.736;9.294;2023-12-29T02:44:55;2.45;;;0.80;;
51190;SDS011;37253;48.736;9.294;2023-12-29T02:46:56;2.50;;;1.00;;
51190;SDS011;37253;48.736;9.294;2023-12-29T02:48:56;1.50;;;0.70;;
51190;SDS011;37253;48.736;9.294;2023-12-29T02:50:56;1.45;;;0.80;;
51190;SDS011;37253;48.736;9.294;2023-12-29T02:52:57;1.98;;;0.93;;
51190;SDS011;37253;48.736;9.294;2023-12-29T02:54:57;3.15;;;1.10;;
51190;SDS011;37253;48.736;9.294;2023-12-29T02:56:57;1.05;;;0.80;;
51190;SDS011;37253;48.736;9.294;2023-12-29T02:58:58;1.48;;;0.88;;
51190;SDS011;37253;48.736;9.294;2023-12-29T03:00:58;4.65;;;0.90;;
51190;SDS011;37253;48.736;9.294;2023-12-29T03:02:58;3.13;;;1.08;;
51190;SDS011;37253;48.736;9.294;2023-12-29T03:04:59;1.60;;;0.70;;
51190;SDS011;37253;48.736;9.294;2023-12-29T03:06:59;1.20;;;0.80;;
51190;SDS011;37253;48.736;9.294;2023-12-29T03:09:00;1.25;;;0.80;;
51190;SDS011;37253;48.736;9.294;2023-12-29T03:11:00;2.13;;;0.80;;
51190;SDS011;37253;48.736;9.294;2023-12-29T03:13:00;1.50;;;0.80;;
51190;SDS011;37253;48.736;9.294;2023-12-29T03:15:02;1.40;;;0.70;;
51190;SDS011;37253;48.736;9.294;2023-12-29T03:17:03;3.22;;;0.80;;
51190;SDS011;37253;48.736;9.294;2023-12-29T03:19:03;1.52;;;0.90;;
51190;SDS011;37253;48.736;9.294;2023-12-29T03:21:04;2.40;;;1.08;;
51190;SDS011;37253;48.736;9.294;2023-12-29T03:23:05;1.33;;;0.73;;
51190;SDS011;37253;48.736;9.294;2023-12-29T03:25:05;1.40;;;0.80;;
51190;SDS011;37253;48.736;9.294;2023-12-29T03:27:05;1.67;;;0.93;;
51190;SDS011;37253;48.736;9.294;2023-12-29T03:29:06;1.83;;;0.80;;
51190;SDS011;37253;48.736;9.294;2023-12-29T03:31:06;1.38;;;0.70;;
51190;SDS011;37253;48.736;9.294;2023-12-29T03:33:06;1.40;;;0.90;;
51190;SDS011;37253;48.736;9.294;2023-12-29T03:35:07;1.05;;;0.68;;
51190;SDS011;37253;48.736;9.294;2023-12-29T03:37:07;3.00;;;0.95;;
51190;SDS011;37253;48.736;9.294;2023-12-29T03:39:08;0.88;;;0.75;;
51190;SDS011;37253;48.736;9.294;2023-12-29T03:41:08;1.80;;;0.80;;
51190;SDS011;37253;48.736;9.294;2023-12-29T03:43:08;0.93;;;0.82;;
51190;SDS011;37253;48.736;9.294;2023-12-29T03:45:09;1.75;;;0.80;;
51190;SDS011;37253;48.736;9.294;2023-12-29T03:47:09;2.42;;;0.90;;
51190;SDS011;37253;48.736;9.294;2023-12-29T03:49:10;2.35;;;0.82;;
51190;SDS011;37253;48.736;9.294;2023-12-29T03:51:11;0.98;;;0.80;;
51190;SDS011;37253;48.736;9.294;2023-12-29T03:53:11;1.73;;;0.85;;
51190;SDS011;37253;48.736;9.294;2023-12-29T03:55:11;1.80;;;0.85;;
51190;SDS011;37253;48.736;9.294;2023-12-29T03:57:12;1.80;;;0.88;;
51190;SDS011;37253;48.736;9.294;2023-12-29T03:59:12;1.88;;;0.63;;
51190;SDS011;37253;48.736;9.294;2023-12-29T04:01:13;1.88;;;0.80;;
51190;SDS011;37253;48.736;9.294;2023-12-29T04:03:14;1.42;;;0.70;;
51190;SDS011;37253;48.736;9.294;2023-12-29T04:05:14;1.65;;;0.80;;
51190;SDS011;37253;48.736;9.294;2023-12-29T04:07:14;1.77;;;0.75;;
51190;SDS011;37253;48.736;9.294;2023-12-29T04:09:15;0.73;;;0.52;;
51190;SDS011;37253;48.736;9.294;2023-12-29T04:11:16;1.50;;;0.75;;
51190;SDS011;37253;48.736;9.294;2023-12-29T04:13:16;1.42;;;0.95;;
51190;SDS011;37253;48.736;9.294;2023-12-29T04:15:16;0.88;;;0.70;;
51190;SDS011;37253;48.736;9.294;2023-12-29T04:17:17;2.50;;;0.70;;
51190;SDS011;37253;48.736;9.294;2023-12-29T04:19:17;1.40;;;0.80;;
51190;SDS011;37253;48.736;9.294;2023-12-29T04:21:17;5.35;;;1.00;;
51190;SDS011;37253;48.736;9.294;2023-12-29T04:23:18;0.60;;;0.60;;
51190;SDS011;37253;48.736;9.294;2023-12-29T04:25:18;1.58;;;0.93;;
51190;SDS011;37253;48.736;9.294;2023-12-29T04:27:19;1.02;;;0.70;;
51190;SDS011;37253;48.736;9.294;2023-12-29T04:29:19;1.33;;;0.82;;
51190;SDS011;37253;48.736;9.294;2023-12-29T04:31:19;1.60;;;0.90;;
51190;SDS011;37253;48.736;9.294;2023-12-29T04:33:20;2.25;;;0.73;;
51190;SDS011;37253;48.736;9.294;2023-12-29T04:35:20;1.63;;;0.65;;
51190;SDS011;37253;48.736;9.294;2023-12-29T04:37:20;1.13;;;0.70;;
51190;SDS011;37253;48.736;9.294;2023-12-29T04:39:21;1.20;;;0.80;;
51190;SDS011;37253;48.736;9.294;2023-12-29T04:41:21;1.48;;;0.80;;
51190;SDS011;37253;48.736;9.294;2023-12-29T04:43:22;0.80;;;0.70;;
51190;SDS011;37253;48.736;9.294;2023-12-29T04:45:22;0.90;;;0.68;;
51190;SDS011;37253;48.736;9.294;2023-12-29T04:47:22;0.98;;;0.70;;
51190;SDS011;37253;48.736;9.294;2023-12-29T04:49:22;0.88;;;0.65;;
51190;SDS011;37253;48.736;9.294;2023-12-29T04:51:23;1.23;;;0.70;;
51190;SDS011;37253;48.736;9.294;2023-12-29T04:53:23;1.10;;;0.73;;
51190;SDS011;37253;48.736;9.294;2023-12-29T04:55:23;1.92;;;0.80;;
51190;SDS011;37253;48.736;9.294;2023-12-29T04:57:24;1.67;;;0.90;;
51190;SDS011;37253;48.736;9.294;2023-12-29T04:59:24;2.85;;;0.65;;
51190;SDS011;37253;48.736;9.294;2023-12-29T05:01:24;1.15;;;0.70;;
51190;SDS011;37253;48.736;9.294;2023-12-29T05:03:25;2.55;;;0.77;;
51190;SDS011;37253;48.736;9.294;2023-12-29T05:05:25;0.90;;;0.70;;
51190;SDS011;37253;48.736;9.294;2023-12-29T05:07:26;0.88;;;0.60;;
51190;SDS011;37253;48.736;9.294;2023-12-29T05:09:26;0.75;;;0.60;;
51190;SDS011;37253;48.736;9.294;2023-12-29T05:11:27;1.25;;;0.70;;
51190;SDS011;37253;48.736;9.294;2023-12-29T05:13:27;1.10;;;0.70;;
51190;SDS011;37253;48.736;9.294;2023-12-29T05:15:28;1.88;;;0.80;;
51190;SDS011;37253;48.736;9.294;2023-12-29T05:17:28;0.88;;;0.73;;
51190;SDS011;37253;48.736;9.294;2023-12-29T05:19:28;1.02;;;0.60;;
51190;SDS011;37253;48.736;9.294;2023-12-29T05:21:29;0.80;;;0.70;;
51190;SDS011;37253;48.736;9.294;2023-12-29T05:23:30;0.90;;;0.75;;
51190;SDS011;37253;48.736;9.294;2023-12-29T05:25:31;1.08;;;0.70;;
51190;SDS011;37253;48.736;9.294;2023-12-29T05:27:31;1.55;;;0.80;;
51190;SDS011;37253;48.736;9.294;2023-12-29T05:29:32;2.03;;;0.90;;
51190;SDS011;37253;48.736;9.294;2023-12-29T05:31:32;2.95;;;0.65;;
51190;SDS011;37253;48.736;9.294;2023-12-29T05:33:33;0.80;;;0.70;;
51190;SDS011;37253;48.736;9.294;2023-12-29T05:35:33;1.15;;;0.60;;
51190;SDS011;37253;48.736;9.294;2023-12-29T05:37:33;0.85;;;0.63;;
51190;SDS011;37253;48.736;9.294;2023-12-29T05:39:34;0.85;;;0.50;;
51190;SDS011;37253;48.736;9.294;2023-12-29T05:41:34;1.50;;;0.70;;
51190;SDS011;37253;48.736;9.294;2023-12-29T05:43:34;0.75;;;0.60;;
51190;SDS011;37253;48.736;9.294;2023-12-29T05:45:35;2.45;;;0.80;;
51190;SDS011;37253;48.736;9.294;2023-12-29T05:47:36;0.65;;;0.52;;
51190;SDS011;37253;48.736;9.294;2023-12-29T05:49:36;1.17;;;0.70;;
51190;SDS011;37253;48.736;9.294;2023-12-29T05:51:39;0.75;;;0.68;;
51190;SDS011;37253;48.736;9.294;2023-12-29T05:53:39;0.70;;;0.70;;
51190;SDS011;37253;48.736;9.294;2023-12-29T05:55:40;1.00;;;0.60;;
51190;SDS011;37253;48.736;9.294;2023-12-29T05:57:40;0.55;;;0.55;;
51190;SDS011;37253;48.736;9.294;2023-12-29T05:59:40;1.08;;;0.70;;
51190;SDS011;37253;48.736;9.294;2023-12-29T06:01:41;2.15;;;0.50;;
51190;SDS011;37253;48.736;9.294;2023-12-29T06:03:41;1.38;;;0.70;;
51190;SDS011;37253;48.736;9.294;2023-12-29T06:05:42;0.85;;;0.52;;
51190;SDS011;37253;48.736;9.294;2023-12-29T06:07:42;0.88;;;0.80;;
51190;SDS011;37253;48.736;9.294;2023-12-29T06:09:43;0.95;;;0.70;;
51190;SDS011;37253;48.736;9.294;2023-12-29T06:11:43;1.00;;;0.65;;
51190;SDS011;37253;48.736;9.294;2023-12-29T06:13:43;0.93;;;0.60;;
51190;SDS011;37253;48.736;9.294;2023-12-29T06:15:43;0.55;;;0.50;;
51190;SDS011;37253;48.736;9.294;2023-12-29T06:17:44;2.35;;;0.65;;
51190;SDS011;37253;48.736;9.294;2023-12-29T06:19:44;1.80;;;0.70;;
51190;SDS011;37253;48.736;9.294;2023-12-29T06:21:45;2.85;;;0.70;;
51190;SDS011;37253;48.736;9.294;2023-12-29T06:23:45;0.73;;;0.60;;
51190;SDS011;37253;48.736;9.294;2023-12-29T06:25:46;1.17;;;0.70;;
51190;SDS011;37253;48.736;9.294;2023-12-29T06:27:46;1.10;;;0.70;;
51190;SDS011;37253;48.736;9.294;2023-12-29T06:29:47;0.68;;;0.65;;
51190;SDS011;37253;48.736;9.294;2023-12-29T06:31:47;0.63;;;0.60;;
51190;SDS011;37253;48.736;9.294;2023-12-29T06:33:47;2.08;;;0.60;;
51190;SDS011;37253;48.736;9.294;2023-12-29T06:35:48;1.80;;;0.60;;
51190;SDS011;37253;48.736;9.294;2023-12-29T06:37:48;0.77;;;0.60;;
51190;SDS011;37253;48.736;9.294;2023-12-29T06:39:48;1.00;;;0.63;;
51190;SDS011;37253;48.736;9.294;2023-12-29T06:41:49;0.77;;;0.70;;
51190;SDS011;37253;48.736;9.294;2023-12-29T06:43:49;1.55;;;0.70;;
51190;SDS011;37253;48.736;9.294;2023-12-29T06:45:49;1.02;;;0.60;;
51190;SDS011;37253;48.736;9.294;2023-12-29T06:47:50;0.80;;;0.55;;
51190;SDS011;37253;48.736;9.294;2023-12-29T06:49:50;0.80;;;0.60;;
51190;SDS011;37253;48.736;9.294;2023-12-29T06:51:51;0.60;;;0.57;;
51190;SDS011;37253;48.736;9.294;2023-12-29T06:53:51;1.40;;;0.70;;
51190;SDS011;37253;48.736;9.294;2023-12-29T06:55:52;0.73;;;0.55;;
51190;SDS011;37253;48.736;9.294;2023-12-29T06:57:52;0.60;;;0.50;;
51190;SDS011;37253;48.736;9.294;2023-12-29T06:59:52;0.70;;;0.70;;
51190;SDS011;37253;48.736;9.294;2023-12-29T07:01:52;1.02;;;0.75;;
51190;SDS011;37253;48.736;9.294;2023-12-29T07:03:53;0.93;;;0.70;;
51190;SDS011;37253;48.736;9.294;2023-12-29T07:05:53;1.15;;;0.65;;
51190;SDS011;37253;48.736;9.294;2023-12-29T07:07:53;0.65;;;0.50;;
51190;SDS011;37253;48.736;9.294;2023-12-29T07:09:54;0.70;;;0.70;;
51190;SDS011;37253;48.736;9.294;2023-12-29T07:11:54;0.68;;;0.52;;
51190;SDS011;37253;48.736;9.294;2023-12-29T07:13:54;0.82;;;0.50;;
51190;SDS011;37253;48.736;9.294;2023-12-29T07:15:55;1.00;;;0.60;;
51190;SDS011;37253;48.736;9.294;2023-12-29T07:17:55;0.50;;;0.50;;
51190;SDS011;37253;48.736;9.294;2023-12-29T07:19:55;1.02;;;0.60;;
51190;SDS011;37253;48.736;9.294;2023-12-29T07:21:56;0.60;;;0.60;;
51190;SDS011;37253;48.736;9.294;2023-12-29T07:23:56;1.02;;;0.65;;
51190;SDS011;37253;48.736;9.294;2023-12-29T07:25:56;0.68;;;0.60;;
51190;SDS011;37253;48.736;9.294;2023-12-29T07:27:57;0.80;;;0.60;;
51190;SDS011;37253;48.736;9.294;2023-12-29T07:29:57;0.50;;;0.50;;
51190;SDS011;37253;48.736;9.294;2023-12-29T07:31:58;0.50;;;0.50;;
51190;SDS011;37253;48.736;9.294;2023-12-29T07:33:59;0.90;;;0.60;;
51190;SDS011;37253;48.736;9.294;2023-12-29T07:35:59;1.00;;;0.65;;
51190;SDS011;37253;48.736;9.294;2023-12-29T07:38:00;0.95;;;0.65;;
51190;SDS011;37253;48.736;9.294;2023-12-29T07:40:00;0.57;;;0.55;;
51190;SDS011;37253;48.736;9.294;2023-12-29T07:42:00;0.82;;;0.68;;
51190;SDS011;37253;48.736;9.294;2023-12-29T07:44:01;15.60;;;1.40;;
51190;SDS011;37253;48.736;9.294;2023-12-29T07:46:01;1.17;;;0.82;;
51190;SDS011;37253;48.736;9.294;2023-12-29T07:48:02;3.92;;;0.65;;
51190;SDS011;37253;48.736;9.294;2023-12-29T07:50:04;2.03;;;0.65;;
51190;SDS011;37253;48.736;9.294;2023-12-29T07:52:05;1.05;;;0.60;;
51190;SDS011;37253;48.736;9.294;2023-12-29T07:54:05;1.30;;;0.60;;
51190;SDS011;37253;48.736;9.294;2023-12-29T07:56:07;2.40;;;0.57;;
51190;SDS011;37253;48.736;9.294;2023-12-29T07:58:07;2.15;;;0.70;;
51190;SDS011;37253;48.736;9.294;2023-12-29T08:00:10;1.10;;;0.50;;
51190;SDS011;37253;48.736;9.294;2023-12-29T08:02:10;0.63;;;0.57;;
51190;SDS011;37253;48.736;9.294;2023-12-29T08:04:10;2.15;;;0.50;;
51190;SDS011;37253;48.736;9.294;2023-12-29T08:06:11;0.55;;;0.55;;
51190;SDS011;37253;48.736;9.294;2023-12-29T08:08:12;1.67;;;0.60;;
51190;SDS011;37253;48.736;9.294;2023-12-29T08:10:12;1.73;;;0.60;;
51190;SDS011;37253;48.736;9.294;2023-12-29T08:12:13;1.30;;;0.60;;
51190;SDS011;37253;48.736;9.294;2023-12-29T08:14:13;1.65;;;0.45;;
51190;SDS011;37253;48.736;9.294;2023-12-29T08:16:14;3.45;;;0.70;;
51190;SDS011;37253;48.736;9.294;2023-12-29T08:18:14;1.38;;;0.60;;
51190;SDS011;37253;48.736;9.294;2023-12-29T08:20:15;1.00;;;0.52;;
51190;SDS011;37253;48.736;9.294;2023-12-29T08:22:15;1.13;;;0.50;;
51190;SDS011;37253;48.736;9.294;2023-12-29T08:24:15;1.40;;;0.55;;
51190;SDS011;37253;48.736;9.294;2023-12-29T08:26:17;0.88;;;0.60;;
51190;SDS011;37253;48.736;9.294;2023-12-29T08:28:17;0.90;;;0.60;;
51190;SDS011;37253;48.736;9.294;2023-12-29T08:30:17;0.90;;;0.60;;
51190;SDS011;37253;48.736;9.294;2023-12-29T08:32:18;0.90;;;0.55;;
51190;SDS011;37253;48.736;9.294;2023-12-29T08:34:18;1.02;;;0.50;;
51190;SDS011;37253;48.736;9.294;2023-12-29T08:36:19;1.00;;;0.50;;
51190;SDS011;37253;48.736;9.294;2023-12-29T08:38:20;1.83;;;0.70;;
51190;SDS011;37253;48.736;9.294;2023-12-29T08:40:20;1.40;;;0.60;;
51190;SDS011;37253;48.736;9.294;2023-12-29T08:42:21;1.95;;;0.50;;
51190;SDS011;37253;48.736;9.294;2023-12-29T08:44:21;1.77;;;0.70;;
51190;SDS011;37253;48.736;9.294;2023-12-29T08:46:21;0.80;;;0.52;;
51190;SDS011;37253;48.736;9.294;2023-12-29T08:48:22;1.45;;;0.70;;
51190;SDS011;37253;48.736;9.294;2023-12-29T08:50:23;2.85;;;0.80;;
51190;SDS011;37253;48.736;9.294;2023-12-29T08:52:25;0.88;;;0.60;;
51190;SDS011;37253;48.736;9.294;2023-12-29T08:54:25;1.17;;;0.50;;
51190;SDS011;37253;48.736;9.294;2023-12-29T08:56:25;0.60;;;0.55;;
51190;SDS011;37253;48.736;9.294;2023-12-29T08:58:26;0.80;;;0.55;;
51190;SDS011;37253;48.736;9.294;2023-12-29T09:00:26;1.65;;;0.55;;
51190;SDS011;37253;48.736;9.294;2023-12-29T09:02:28;2.13;;;0.60;;
51190;SDS011;37253;48.736;9.294;2023-12-29T09:04:28;1.08;;;0.60;;
51190;SDS011;37253;48.736;9.294;2023-12-29T09:06:29;0.75;;;0.47;;
51190;SDS011;37253;48.736;9.294;2023-12-29T09:08:29;6.65;;;0.77;;
51190;SDS011;37253;48.736;9.294;2023-12-29T09:10:29;1.35;;;0.50;;
51190;SDS011;37253;48.736;9.294;2023-12-29T09:12:30;2.80;;;0.68;;
51190;SDS011;37253;48.736;9.294;2023-12-29T09:14:30;2.15;;;0.50;;
51190;SDS011;37253;48.736;9.294;2023-12-29T09:16:34;3.10;;;0.77;;
51190;SDS011;37253;48.736;9.294;2023-12-29T09:18:35;6.95;;;0.63;;
51190;SDS011;37253;48.736;9.294;2023-12-29T09:20:35;4.30;;;0.70;;
51190;SDS011;37253;48.736;9.294;2023-12-29T09:22:35;7.38;;;0.80;;
51190;SDS011;37253;48.736;9.294;2023-12-29T09:24:36;6.47;;;1.00;;
51190;SDS011;37253;48.736;9.294;2023-12-29T09:26:36;1.38;;;0.70;;
51190;SDS011;37253;48.736;9.294;2023-12-29T09:28:36;11.63;;;0.90;;
51190;SDS011;37253;48.736;9.294;2023-12-29T09:30:37;6.05;;;0.82;;
51190;SDS011;37253;48.736;9.294;2023-12-29T09:32:37;2.75;;;0.82;;
51190;SDS011;37253;48.736;9.294;2023-12-29T09:34:37;11.23;;;1.10;;
51190;SDS011;37253;48.736;9.294;2023-12-29T09:36:38;4.15;;;1.00;;
51190;SDS011;37253;48.736;9.294;2023-12-29T09:38:38;2.47;;;1.20;;
51190;SDS011;37253;48.736;9.294;2023-12-29T09:40:38;5.53;;;1.17;;
51190;SDS011;37253;48.736;9.294;2023-12-29T09:42:39;4.25;;;1.02;;
51190;SDS011;37253;48.736;9.294;2023-12-29T09:44:40;4.45;;;1.17;;
51190;SDS011;37253;48.736;9.294;2023-12-29T09:46:41;6.45;;;1.40;;
51190;SDS011;37253;48.736;9.294;2023-12-29T09:48:42;8.30;;;1.33;;
51190;SDS011;37253;48.736;9.294;2023-12-29T09:50:46;5.95;;;1.42;;
51190;SDS011;37253;48.736;9.294;2023-12-29T09:52:49;8.07;;;1.65;;
51190;SDS011;37253;48.736;9.294;2023-12-29T09:54:51;6.80;;;1.40;;
51190;SDS011;37253;48.736;9.294;2023-12-29T09:56:51;10.18;;;1.67;;
51190;SDS011;37253;48.736;9.294;2023-12-29T09:58:52;10.85;;;1.60;;
51190;SDS011;37253;48.736;9.294;2023-12-29T10:00:54;4.47;;;1.30;;
51190;SDS011;37253;48.736;9.294;2023-12-29T10:02:54;4.63;;;1.63;;
51190;SDS011;37253;48.736;9.294;2023-12-29T10:04:54;6.10;;;1.50;;
51190;SDS011;37253;48.736;9.294;2023-12-29T10:06:55;5.07;;;1.33;;
51190;SDS011;37253;48.736;9.294;2023-12-29T10:08:57;4.45;;;1.30;;
51190;SDS011;37253;48.736;9.294;2023-12-29T10:10:58;7.78;;;1.48;;
51190;SDS011;37253;48.736;9.294;2023-12-29T10:12:58;6.55;;;1.42;;
51190;SDS011;37253;48.736;9.294;2023-12-29T10:17:02;8.32;;;1.45;;
51190;SDS011;37253;48.736;9.294;2023-12-29T10:21:29;7.13;;;1.50;;
51190;SDS011;37253;48.736;9.294;2023-12-29T10:23:40;4.20;;;1.38;;
51190;SDS011;37253;48.736;9.294;2023-12-29T10:25:42;6.47;;;1.35;;
51190;SDS011;37253;48.736;9.294;2023-12-29T10:27:42;5.13;;;1.30;;
51190;SDS011;37253;48.736;9.294;2023-12-29T10:29:43;4.25;;;1.52;;
51190;SDS011;37253;48.736;9.294;2023-12-29T10:31:43;8.50;;;1.23;;
51190;SDS011;37253;48.736;9.294;2023-12-29T10:33:43;6.88;;;1.17;;
51190;SDS011;37253;48.736;9.294;2023-12-29T10:36:02;5.68;;;1.23;;
51190;SDS011;37253;48.736;9.294;2023-12-29T10:38:10;4.80;;;1.10;;
51190;SDS011;37253;48.736;9.294;2023-12-29T10:40:16;4.25;;;1.40;;
51190;SDS011;37253;48.736;9.294;2023-12-29T10:42:19;7.00;;;1.27;;
51190;SDS011;37253;48.736;9.294;2023-12-29T10:44:20;2.20;;;1.08;;
51190;SDS011;37253;48.736;9.294;2023-12-29T10:46:20;3.85;;;1.13;;
51190;SDS011;37253;48.736;9.294;2023-12-29T10:48:21;3.83;;;1.25;;
51190;SDS011;37253;48.736;9.294;2023-12-29T10:50:24;4.25;;;1.20;;
51190;SDS011;37253;48.736;9.294;2023-12-29T10:52:24;6.30;;;1.30;;
51190;SDS011;37253;48.736;9.294;2023-12-29T10:54:24;4.78;;;1.02;;
51190;SDS011;37253;48.736;9.294;2023-12-29T10:56:25;5.13;;;1.17;;
51190;SDS011;37253;48.736;9.294;2023-12-29T10:58:26;3.45;;;1.08;;
51190;SDS011;37253;48.736;9.294;2023-12-29T11:00:29;5.00;;;1.25;;
51190;SDS011;37253;48.736;9.294;2023-12-29T11:02:30;2.25;;;1.00;;
51190;SDS011;37253;48.736;9.294;2023-12-29T11:04:32;5.82;;;1.13;;
51190;SDS011;37253;48.736;9.294;2023-12-29T11:06:42;4.45;;;1.30;;
51190;SDS011;37253;48.736;9.294;2023-12-29T11:08:46;2.10;;;1.13;;
51190;SDS011;37253;48.736;9.294;2023-12-29T11:10:48;3.63;;;1.02;;
51190;SDS011;37253;48.736;9.294;2023-12-29T11:12:49;4.28;;;1.15;;
51190;SDS011;37253;48.736;9.294;2023-12-29T11:14:49;4.55;;;1.05;;
51190;SDS011;37253;48.736;9.294;2023-12-29T11:16:50;4.13;;;1.15;;
51190;SDS011;37253;48.736;9.294;2023-12-29T11:18:51;3.90;;;1.05;;
51190;SDS011;37253;48.736;9.294;2023-12-29T11:20:51;6.30;;;1.00;;
51190;SDS011;37253;48.736;9.294;2023-12-29T11:22:53;3.35;;;1.00;;
51190;SDS011;37253;48.736;9.294;2023-12-29T11:24:54;1.67;;;1.00;;
51190;SDS011;37253;48.736;9.294;2023-12-29T11:26:54;3.15;;;0.90;;
51190;SDS011;37253;48.736;9.294;2023-12-29T11:28:55;3.70;;;1.00;;
51190;SDS011;37253;48.736;9.294;2023-12-29T11:30:55;1.73;;;0.80;;
51190;SDS011;37253;48.736;9.294;2023-12-29T11:33:29;1.95;;;1.08;;
51190;SDS011;37253;48.736;9.294;2023-12-29T11:35:32;4.40;;;1.10;;
51190;SDS011;37253;48.736;9.294;2023-12-29T11:38:00;2.60;;;0.63;;
51190;SDS011;37253;48.736;9.294;2023-12-29T11:40:26;2.03;;;0.80;;
51190;SDS011;37253;48.736;9.294;2023-12-29T11:42:33;2.83;;;0.60;;
51190;SDS011;37253;48.736;9.294;2023-12-29T11:44:37;2.63;;;0.80;;
51190;SDS011;37253;48.736;9.294;2023-12-29T11:46:41;8.13;;;0.85;;
51190;SDS011;37253;48.736;9.294;2023-12-29T11:48:52;4.82;;;1.23;;
51190;SDS011;37253;48.736;9.294;2023-12-29T11:50:54;3.00;;;0.95;;
51190;SDS011;37253;48.736;9.294;2023-12-29T11:52:55;2.45;;;0.80;;
51190;SDS011;37253;48.736;9.294;2023-12-29T11:55:06;7.30;;;1.15;;
51190;SDS011;37253;48.736;9.294;2023-12-29T11:57:07;2.85;;;0.88;;
51190;SDS011;37253;48.736;9.294;2023-12-29T11:59:17;2.47;;;0.90;;
51190;SDS011;37253;48.736;9.294;2023-12-29T12:01:32;12.73;;;1.10;;
51190;SDS011;37253;48.736;9.294;2023-12-29T12:03:34;11.55;;;0.85;;
51190;SDS011;37253;48.736;9.294;2023-12-29T12:05:45;4.35;;;0.90;;
51190;SDS011;37253;48.736;9.294;2023-12-29T12:12:39;5.30;;;1.00;;
51190;SDS011;37253;48.736;9.294;2023-12-29T12:14:50;6.20;;;0.63;;
51190;SDS011;37253;48.736;9.294;2023-12-29T12:16:51;1.77;;;0.68;;
51190;SDS011;37253;48.736;9.294;2023-12-29T12:18:53;6.90;;;0.98;;
51190;SDS011;37253;48.736;9.294;2023-12-29T12:20:53;2.38;;;0.80;;